sensor_id;sensor_type;location;lat;lon;timestamp;P1;durP1;ratioP1;P2;durP2;ratioP2
53903;SDS011;39812;52.430;16.936;2022-11-20T00:01:07;17.13;;;7.63;;
53903;SDS011;39812;52.430;16.936;2022-11-20T00:03:38;16.02;;;6.70;;
53903;SDS011;39812;52.430;16.936;2022-11-20T00:06:04;14.73;;;6.32;;
53903;SDS011;39812;52.430;16.936;2022-11-20T00:08:31;13.43;;;7.50;;
53903;SDS011;39812;52.430;16.936;2022-11-20T00:10:57;15.00;;;7.43;;
53903;SDS011;39812;52.430;16.936;2022-11-20T00:13:22;13.48;;;6.43;;
53903;SDS011;39812;52.430;16.936;2022-11-20T00:15:48;18.20;;;8.55;;
53903;SDS011;39812;52.430;16.936;2022-11-20T00:18:21;16.27;;;6.78;;
53903;SDS011;39812;52.430;16.936;2022-11-20T00:20:46;16.67;;;7.47;;
53903;SDS011;39812;52.430;16.936;2022-11-20T00:23:12;14.85;;;6.72;;
53903;SDS011;39812;52.430;16.936;2022-11-20T00:25:37;14.60;;;8.73;;
53903;SDS011;39812;52.430;16.936;2022-11-20T00:28:03;15.48;;;8.05;;
53903;SDS011;39812;52.430;16.936;2022-11-20T00:30:28;14.15;;;7.03;;
53903;SDS011;39812;52.430;16.936;2022-11-20T00:32:55;16.70;;;7.20;;
53903;SDS011;39812;52.430;16.936;2022-11-20T00:35:21;18.08;;;8.35;;
53903;SDS011;39812;52.430;16.936;2022-11-20T00:37:47;13.27;;;7.45;;
53903;SDS011;39812;52.430;16.936;2022-11-20T00:40:12;16.48;;;7.22;;
53903;SDS011;39812;52.430;16.936;2022-11-20T00:42:38;15.70;;;7.05;;
53903;SDS011;39812;52.430;16.936;2022-11-20T00:45:03;13.82;;;7.22;;
53903;SDS011;39812;52.430;16.936;2022-11-20T00:47:29;11.95;;;6.88;;
53903;SDS011;39812;52.430;16.936;2022-11-20T00:49:55;16.17;;;7.55;;
53903;SDS011;39812;52.430;16.936;2022-11-20T00:52:20;15.02;;;6.95;;
53903;SDS011;39812;52.430;16.936;2022-11-20T00:54:46;18.45;;;7.28;;
53903;SDS011;39812;52.430;16.936;2022-11-20T00:57:11;14.20;;;6.80;;
53903;SDS011;39812;52.430;16.936;2022-11-20T00:59:37;12.57;;;6.70;;
53903;SDS011;39812;52.430;16.936;2022-11-20T01:02:02;14.70;;;7.25;;
53903;SDS011;39812;52.430;16.936;2022-11-20T01:04:28;13.13;;;6.43;;
53903;SDS011;39812;52.430;16.936;2022-11-20T01:06:53;11.95;;;6.13;;
53903;SDS011;39812;52.430;16.936;2022-11-20T01:09:19;13.32;;;7.43;;
53903;SDS011;39812;52.430;16.936;2022-11-20T01:11:44;10.75;;;6.60;;
53903;SDS011;39812;52.430;16.936;2022-11-20T01:14:15;16.00;;;6.70;;
53903;SDS011;39812;52.430;16.936;2022-11-20T01:16:48;10.63;;;5.43;;
53903;SDS011;39812;52.430;16.936;2022-11-20T01:19:18;11.60;;;6.32;;
53903;SDS011;39812;52.430;16.936;2022-11-20T01:21:47;12.98;;;6.97;;
53903;SDS011;39812;52.430;16.936;2022-11-20T01:24:14;18.92;;;7.90;;
53903;SDS011;39812;52.430;16.936;2022-11-20T01:26:42;16.55;;;7.63;;
53903;SDS011;39812;52.430;16.936;2022-11-20T01:29:19;11.88;;;6.07;;
53903;SDS011;39812;52.430;16.936;2022-11-20T01:31:47;13.43;;;6.70;;
53903;SDS011;39812;52.430;16.936;2022-11-20T01:34:13;16.30;;;7.50;;
53903;SDS011;39812;52.430;16.936;2022-11-20T01:36:41;12.98;;;7.15;;
53903;SDS011;39812;52.430;16.936;2022-11-20T01:39:10;12.98;;;6.00;;
53903;SDS011;39812;52.430;16.936;2022-11-20T01:41:37;14.52;;;6.82;;
53903;SDS011;39812;52.430;16.936;2022-11-20T01:44:23;12.63;;;5.77;;
53903;SDS011;39812;52.430;16.936;2022-11-20T01:47:14;10.70;;;6.18;;
53903;SDS011;39812;52.430;16.936;2022-11-20T01:49:45;16.45;;;7.20;;
53903;SDS011;39812;52.430;16.936;2022-11-20T01:52:23;16.35;;;8.65;;
53903;SDS011;39812;52.430;16.936;2022-11-20T01:55:05;16.45;;;7.85;;
53903;SDS011;39812;52.430;16.936;2022-11-20T01:57:33;15.77;;;7.03;;
53903;SDS011;39812;52.430;16.936;2022-11-20T02:00:05;14.30;;;7.28;;
53903;SDS011;39812;52.430;16.936;2022-11-20T02:02:33;17.27;;;7.82;;
53903;SDS011;39812;52.430;16.936;2022-11-20T02:05:00;12.45;;;6.90;;
53903;SDS011;39812;52.430;16.936;2022-11-20T02:07:32;15.90;;;8.23;;
53903;SDS011;39812;52.430;16.936;2022-11-20T02:09:58;15.23;;;7.82;;
53903;SDS011;39812;52.430;16.936;2022-11-20T02:12:23;16.75;;;8.40;;
53903;SDS011;39812;52.430;16.936;2022-11-20T02:15:07;14.40;;;7.88;;
53903;SDS011;39812;52.430;16.936;2022-11-20T02:17:33;18.90;;;8.32;;
53903;SDS011;39812;52.430;16.936;2022-11-20T02:19:58;22.25;;;9.75;;
53903;SDS011;39812;52.430;16.936;2022-11-20T02:22:28;18.45;;;8.48;;
53903;SDS011;39812;52.430;16.936;2022-11-20T02:25:01;19.73;;;9.90;;
53903;SDS011;39812;52.430;16.936;2022-11-20T02:27:28;18.70;;;10.02;;
53903;SDS011;39812;52.430;16.936;2022-11-20T02:29:58;23.48;;;10.27;;
53903;SDS011;39812;52.430;16.936;2022-11-20T02:32:31;18.75;;;9.98;;
53903;SDS011;39812;52.430;16.936;2022-11-20T02:35:05;23.98;;;9.40;;
53903;SDS011;39812;52.430;16.936;2022-11-20T02:40:09;17.45;;;8.98;;
53903;SDS011;39812;52.430;16.936;2022-11-20T02:42:36;25.23;;;11.50;;
53903;SDS011;39812;52.430;16.936;2022-11-20T02:45:02;23.13;;;10.60;;
53903;SDS011;39812;52.430;16.936;2022-11-20T02:47:29;21.33;;;9.85;;
53903;SDS011;39812;52.430;16.936;2022-11-20T02:49:54;19.23;;;9.07;;
53903;SDS011;39812;52.430;16.936;2022-11-20T02:52:20;23.75;;;8.38;;
53903;SDS011;39812;52.430;16.936;2022-11-20T02:54:45;20.50;;;9.88;;
53903;SDS011;39812;52.430;16.936;2022-11-20T02:57:11;27.92;;;11.43;;
53903;SDS011;39812;52.430;16.936;2022-11-20T02:59:36;24.55;;;11.00;;
53903;SDS011;39812;52.430;16.936;2022-11-20T03:02:02;20.65;;;9.25;;
53903;SDS011;39812;52.430;16.936;2022-11-20T03:04:27;26.65;;;12.15;;
53903;SDS011;39812;52.430;16.936;2022-11-20T03:06:53;23.30;;;11.45;;
53903;SDS011;39812;52.430;16.936;2022-11-20T03:09:18;29.35;;;11.63;;
53903;SDS011;39812;52.430;16.936;2022-11-20T03:11:43;23.67;;;12.25;;
53903;SDS011;39812;52.430;16.936;2022-11-20T03:14:09;29.50;;;11.77;;
53903;SDS011;39812;52.430;16.936;2022-11-20T03:16:34;17.08;;;9.23;;
53903;SDS011;39812;52.430;16.936;2022-11-20T03:19:00;18.73;;;9.02;;
53903;SDS011;39812;52.430;16.936;2022-11-20T03:21:26;19.55;;;10.38;;
53903;SDS011;39812;52.430;16.936;2022-11-20T03:23:52;18.30;;;9.35;;
53903;SDS011;39812;52.430;16.936;2022-11-20T03:26:20;26.98;;;12.00;;
53903;SDS011;39812;52.430;16.936;2022-11-20T03:28:51;19.00;;;9.70;;
53903;SDS011;39812;52.430;16.936;2022-11-20T03:31:20;25.95;;;12.63;;
53903;SDS011;39812;52.430;16.936;2022-11-20T03:33:46;22.63;;;11.07;;
53903;SDS011;39812;52.430;16.936;2022-11-20T03:36:13;21.08;;;10.75;;
53903;SDS011;39812;52.430;16.936;2022-11-20T03:38:40;28.02;;;11.45;;
53903;SDS011;39812;52.430;16.936;2022-11-20T03:41:07;22.65;;;10.95;;
53903;SDS011;39812;52.430;16.936;2022-11-20T03:43:34;20.30;;;10.27;;
53903;SDS011;39812;52.430;16.936;2022-11-20T03:46:00;26.15;;;11.50;;
53903;SDS011;39812;52.430;16.936;2022-11-20T03:48:26;25.58;;;12.65;;
53903;SDS011;39812;52.430;16.936;2022-11-20T03:50:52;29.48;;;11.95;;
53903;SDS011;39812;52.430;16.936;2022-11-20T03:53:30;23.17;;;9.82;;
53903;SDS011;39812;52.430;16.936;2022-11-20T03:55:56;25.50;;;11.32;;
53903;SDS011;39812;52.430;16.936;2022-11-20T03:58:21;21.45;;;9.73;;
53903;SDS011;39812;52.430;16.936;2022-11-20T04:00:47;24.45;;;10.52;;
53903;SDS011;39812;52.430;16.936;2022-11-20T04:03:12;26.38;;;11.15;;
53903;SDS011;39812;52.430;16.936;2022-11-20T04:05:37;20.90;;;10.80;;
53903;SDS011;39812;52.430;16.936;2022-11-20T04:08:03;21.90;;;10.00;;
53903;SDS011;39812;52.430;16.936;2022-11-20T04:10:29;22.50;;;10.48;;
53903;SDS011;39812;52.430;16.936;2022-11-20T04:12:54;25.73;;;10.93;;
53903;SDS011;39812;52.430;16.936;2022-11-20T04:15:20;22.08;;;9.55;;
53903;SDS011;39812;52.430;16.936;2022-11-20T04:17:45;16.40;;;8.68;;
53903;SDS011;39812;52.430;16.936;2022-11-20T04:20:11;24.48;;;10.63;;
53903;SDS011;39812;52.430;16.936;2022-11-20T04:22:36;23.55;;;11.07;;
53903;SDS011;39812;52.430;16.936;2022-11-20T04:25:02;24.75;;;10.45;;
53903;SDS011;39812;52.430;16.936;2022-11-20T04:27:28;18.58;;;8.98;;
53903;SDS011;39812;52.430;16.936;2022-11-20T04:29:55;20.58;;;9.52;;
53903;SDS011;39812;52.430;16.936;2022-11-20T04:32:20;21.88;;;11.52;;
53903;SDS011;39812;52.430;16.936;2022-11-20T04:34:45;25.52;;;11.50;;
53903;SDS011;39812;52.430;16.936;2022-11-20T04:37:11;19.88;;;11.15;;
53903;SDS011;39812;52.430;16.936;2022-11-20T04:39:36;17.33;;;8.15;;
53903;SDS011;39812;52.430;16.936;2022-11-20T04:42:02;19.00;;;9.35;;
53903;SDS011;39812;52.430;16.936;2022-11-20T04:44:46;20.70;;;9.98;;
53903;SDS011;39812;52.430;16.936;2022-11-20T04:47:11;17.67;;;9.40;;
53903;SDS011;39812;52.430;16.936;2022-11-20T04:49:37;24.40;;;11.57;;
53903;SDS011;39812;52.430;16.936;2022-11-20T04:52:02;24.40;;;10.63;;
53903;SDS011;39812;52.430;16.936;2022-11-20T04:54:28;17.95;;;10.02;;
53903;SDS011;39812;52.430;16.936;2022-11-20T04:56:53;26.17;;;10.07;;
53903;SDS011;39812;52.430;16.936;2022-11-20T04:59:18;21.70;;;11.07;;
53903;SDS011;39812;52.430;16.936;2022-11-20T05:01:44;23.60;;;11.45;;
53903;SDS011;39812;52.430;16.936;2022-11-20T05:04:10;20.27;;;8.55;;
53903;SDS011;39812;52.430;16.936;2022-11-20T05:06:35;21.58;;;11.07;;
53903;SDS011;39812;52.430;16.936;2022-11-20T05:09:01;22.50;;;11.00;;
53903;SDS011;39812;52.430;16.936;2022-11-20T05:11:27;25.08;;;10.60;;
53903;SDS011;39812;52.430;16.936;2022-11-20T05:13:57;26.55;;;11.25;;
53903;SDS011;39812;52.430;16.936;2022-11-20T05:16:24;18.95;;;8.40;;
53903;SDS011;39812;52.430;16.936;2022-11-20T05:18:51;22.13;;;9.38;;
53903;SDS011;39812;52.430;16.936;2022-11-20T05:21:19;18.23;;;9.10;;
53903;SDS011;39812;52.430;16.936;2022-11-20T05:23:44;19.45;;;8.85;;
53903;SDS011;39812;52.430;16.936;2022-11-20T05:26:18;15.15;;;7.63;;
53903;SDS011;39812;52.430;16.936;2022-11-20T05:28:44;17.00;;;8.38;;
53903;SDS011;39812;52.430;16.936;2022-11-20T05:31:11;17.13;;;8.00;;
53903;SDS011;39812;52.430;16.936;2022-11-20T05:33:41;13.93;;;7.78;;
53903;SDS011;39812;52.430;16.936;2022-11-20T05:36:08;19.40;;;8.90;;
53903;SDS011;39812;52.430;16.936;2022-11-20T05:38:34;16.35;;;7.65;;
53903;SDS011;39812;52.430;16.936;2022-11-20T05:41:04;11.57;;;6.40;;
53903;SDS011;39812;52.430;16.936;2022-11-20T05:43:35;12.35;;;7.10;;
53903;SDS011;39812;52.430;16.936;2022-11-20T05:46:02;16.88;;;8.40;;
53903;SDS011;39812;52.430;16.936;2022-11-20T05:48:27;16.50;;;8.13;;
53903;SDS011;39812;52.430;16.936;2022-11-20T05:50:53;15.50;;;7.78;;
53903;SDS011;39812;52.430;16.936;2022-11-20T05:53:18;20.50;;;8.85;;
53903;SDS011;39812;52.430;16.936;2022-11-20T05:55:44;19.45;;;9.23;;
53903;SDS011;39812;52.430;16.936;2022-11-20T05:58:09;20.67;;;9.13;;
53903;SDS011;39812;52.430;16.936;2022-11-20T06:00:35;18.50;;;8.77;;
53903;SDS011;39812;52.430;16.936;2022-11-20T06:03:00;20.38;;;8.95;;
53903;SDS011;39812;52.430;16.936;2022-11-20T06:05:26;25.08;;;8.50;;
53903;SDS011;39812;52.430;16.936;2022-11-20T06:07:51;18.75;;;8.73;;
53903;SDS011;39812;52.430;16.936;2022-11-20T06:10:17;12.77;;;6.35;;
53903;SDS011;39812;52.430;16.936;2022-11-20T06:12:42;20.02;;;8.98;;
53903;SDS011;39812;52.430;16.936;2022-11-20T06:15:08;15.38;;;8.10;;
53903;SDS011;39812;52.430;16.936;2022-11-20T06:17:34;19.52;;;7.82;;
53903;SDS011;39812;52.430;16.936;2022-11-20T06:19:59;15.73;;;8.48;;
53903;SDS011;39812;52.430;16.936;2022-11-20T06:22:25;23.85;;;10.23;;
53903;SDS011;39812;52.430;16.936;2022-11-20T06:24:50;18.23;;;9.18;;
53903;SDS011;39812;52.430;16.936;2022-11-20T06:27:16;21.40;;;10.27;;
53903;SDS011;39812;52.430;16.936;2022-11-20T06:29:41;19.02;;;8.25;;
53903;SDS011;39812;52.430;16.936;2022-11-20T06:32:07;18.80;;;8.95;;
53903;SDS011;39812;52.430;16.936;2022-11-20T06:34:32;20.67;;;9.70;;
53903;SDS011;39812;52.430;16.936;2022-11-20T06:36:58;27.75;;;10.73;;
53903;SDS011;39812;52.430;16.936;2022-11-20T06:39:24;21.10;;;8.48;;
53903;SDS011;39812;52.430;16.936;2022-11-20T06:41:50;23.20;;;10.15;;
53903;SDS011;39812;52.430;16.936;2022-11-20T06:44:15;16.60;;;10.38;;
53903;SDS011;39812;52.430;16.936;2022-11-20T06:46:40;15.80;;;8.07;;
53903;SDS011;39812;52.430;16.936;2022-11-20T06:49:06;17.27;;;8.15;;
53903;SDS011;39812;52.430;16.936;2022-11-20T06:51:31;19.98;;;9.95;;
53903;SDS011;39812;52.430;16.936;2022-11-20T06:53:57;19.00;;;9.13;;
53903;SDS011;39812;52.430;16.936;2022-11-20T06:56:22;21.27;;;9.80;;
53903;SDS011;39812;52.430;16.936;2022-11-20T06:58:48;16.95;;;9.15;;
53903;SDS011;39812;52.430;16.936;2022-11-20T07:01:14;17.30;;;8.93;;
53903;SDS011;39812;52.430;16.936;2022-11-20T07:03:40;18.92;;;9.90;;
53903;SDS011;39812;52.430;16.936;2022-11-20T07:06:06;25.70;;;10.52;;
53903;SDS011;39812;52.430;16.936;2022-11-20T07:08:32;22.00;;;9.10;;
53903;SDS011;39812;52.430;16.936;2022-11-20T07:10:59;23.73;;;10.00;;
53903;SDS011;39812;52.430;16.936;2022-11-20T07:13:26;17.98;;;10.13;;
53903;SDS011;39812;52.430;16.936;2022-11-20T07:15:52;20.05;;;10.05;;
53903;SDS011;39812;52.430;16.936;2022-11-20T07:18:17;25.40;;;11.43;;
53903;SDS011;39812;52.430;16.936;2022-11-20T07:20:42;19.10;;;8.88;;
53903;SDS011;39812;52.430;16.936;2022-11-20T07:23:08;20.02;;;10.23;;
53903;SDS011;39812;52.430;16.936;2022-11-20T07:25:33;24.90;;;11.32;;
53903;SDS011;39812;52.430;16.936;2022-11-20T07:27:59;23.60;;;11.30;;
53903;SDS011;39812;52.430;16.936;2022-11-20T07:30:28;25.92;;;11.50;;
53903;SDS011;39812;52.430;16.936;2022-11-20T07:32:54;28.55;;;11.35;;
53903;SDS011;39812;52.430;16.936;2022-11-20T07:35:21;25.13;;;9.20;;
53903;SDS011;39812;52.430;16.936;2022-11-20T07:37:47;20.63;;;9.43;;
53903;SDS011;39812;52.430;16.936;2022-11-20T07:40:13;19.42;;;10.27;;
53903;SDS011;39812;52.430;16.936;2022-11-20T07:42:49;25.48;;;12.00;;
53903;SDS011;39812;52.430;16.936;2022-11-20T07:45:16;29.63;;;12.48;;
53903;SDS011;39812;52.430;16.936;2022-11-20T07:47:42;18.50;;;9.55;;
53903;SDS011;39812;52.430;16.936;2022-11-20T07:50:08;20.05;;;9.85;;
53903;SDS011;39812;52.430;16.936;2022-11-20T07:52:34;26.65;;;11.85;;
53903;SDS011;39812;52.430;16.936;2022-11-20T07:54:59;22.35;;;10.30;;
53903;SDS011;39812;52.430;16.936;2022-11-20T07:57:25;24.05;;;11.82;;
53903;SDS011;39812;52.430;16.936;2022-11-20T07:59:50;23.90;;;12.05;;
53903;SDS011;39812;52.430;16.936;2022-11-20T08:02:16;22.30;;;11.52;;
53903;SDS011;39812;52.430;16.936;2022-11-20T08:04:41;23.08;;;10.27;;
53903;SDS011;39812;52.430;16.936;2022-11-20T08:07:07;18.42;;;9.27;;
53903;SDS011;39812;52.430;16.936;2022-11-20T08:09:32;21.73;;;9.80;;
53903;SDS011;39812;52.430;16.936;2022-11-20T08:11:57;29.05;;;10.88;;
53903;SDS011;39812;52.430;16.936;2022-11-20T08:14:41;24.23;;;9.90;;
53903;SDS011;39812;52.430;16.936;2022-11-20T08:17:07;17.73;;;8.60;;
53903;SDS011;39812;52.430;16.936;2022-11-20T08:19:32;18.75;;;8.55;;
53903;SDS011;39812;52.430;16.936;2022-11-20T08:21:58;20.70;;;9.32;;
53903;SDS011;39812;52.430;16.936;2022-11-20T08:24:23;27.15;;;10.30;;
53903;SDS011;39812;52.430;16.936;2022-11-20T08:26:51;22.33;;;10.27;;
53903;SDS011;39812;52.430;16.936;2022-11-20T08:29:16;23.13;;;10.30;;
53903;SDS011;39812;52.430;16.936;2022-11-20T08:31:42;22.92;;;9.85;;
53903;SDS011;39812;52.430;16.936;2022-11-20T08:34:08;20.98;;;9.70;;
53903;SDS011;39812;52.430;16.936;2022-11-20T08:36:33;16.42;;;9.20;;
53903;SDS011;39812;52.430;16.936;2022-11-20T08:38:59;20.08;;;9.95;;
53903;SDS011;39812;52.430;16.936;2022-11-20T08:41:25;22.88;;;10.57;;
53903;SDS011;39812;52.430;16.936;2022-11-20T08:43:56;19.15;;;9.88;;
53903;SDS011;39812;52.430;16.936;2022-11-20T08:46:23;27.15;;;11.30;;
53903;SDS011;39812;52.430;16.936;2022-11-20T08:48:50;26.73;;;11.75;;
53903;SDS011;39812;52.430;16.936;2022-11-20T08:51:16;22.95;;;11.00;;
53903;SDS011;39812;52.430;16.936;2022-11-20T08:53:43;20.27;;;9.73;;
53903;SDS011;39812;52.430;16.936;2022-11-20T08:56:08;26.98;;;10.07;;
53903;SDS011;39812;52.430;16.936;2022-11-20T08:58:37;25.23;;;11.40;;
53903;SDS011;39812;52.430;16.936;2022-11-20T09:01:03;28.52;;;10.75;;
53903;SDS011;39812;52.430;16.936;2022-11-20T09:03:29;23.35;;;10.52;;
53903;SDS011;39812;52.430;16.936;2022-11-20T09:06:02;25.23;;;11.48;;
53903;SDS011;39812;52.430;16.936;2022-11-20T09:08:30;23.90;;;10.85;;
53903;SDS011;39812;52.430;16.936;2022-11-20T09:10:57;19.42;;;10.23;;
53903;SDS011;39812;52.430;16.936;2022-11-20T09:13:24;24.15;;;10.80;;
53903;SDS011;39812;52.430;16.936;2022-11-20T09:15:54;20.65;;;9.93;;
53903;SDS011;39812;52.430;16.936;2022-11-20T09:18:24;23.00;;;11.30;;
53903;SDS011;39812;52.430;16.936;2022-11-20T09:20:51;24.65;;;10.73;;
53903;SDS011;39812;52.430;16.936;2022-11-20T09:23:16;21.70;;;10.25;;
53903;SDS011;39812;52.430;16.936;2022-11-20T09:25:43;24.42;;;10.43;;
53903;SDS011;39812;52.430;16.936;2022-11-20T09:28:08;28.33;;;11.25;;
53903;SDS011;39812;52.430;16.936;2022-11-20T09:30:34;24.67;;;10.50;;
53903;SDS011;39812;52.430;16.936;2022-11-20T09:33:00;23.17;;;10.27;;
53903;SDS011;39812;52.430;16.936;2022-11-20T09:35:26;24.65;;;11.95;;
53903;SDS011;39812;52.430;16.936;2022-11-20T09:37:52;27.05;;;10.98;;
53903;SDS011;39812;52.430;16.936;2022-11-20T09:40:21;24.55;;;10.77;;
53903;SDS011;39812;52.430;16.936;2022-11-20T09:42:54;22.83;;;10.13;;
53903;SDS011;39812;52.430;16.936;2022-11-20T09:48:47;22.95;;;9.40;;
53903;SDS011;39812;52.430;16.936;2022-11-20T09:51:36;22.73;;;9.60;;
53903;SDS011;39812;52.430;16.936;2022-11-20T09:54:17;21.95;;;10.73;;
53903;SDS011;39812;52.430;16.936;2022-11-20T09:56:46;23.30;;;10.43;;
53903;SDS011;39812;52.430;16.936;2022-11-20T09:59:27;21.15;;;8.80;;
53903;SDS011;39812;52.430;16.936;2022-11-20T10:01:58;22.98;;;9.65;;
53903;SDS011;39812;52.430;16.936;2022-11-20T10:04:25;26.17;;;9.77;;
53903;SDS011;39812;52.430;16.936;2022-11-20T10:06:56;23.13;;;11.15;;
53903;SDS011;39812;52.430;16.936;2022-11-20T10:09:31;22.80;;;9.70;;
53903;SDS011;39812;52.430;16.936;2022-11-20T10:12:12;25.58;;;10.48;;
53903;SDS011;39812;52.430;16.936;2022-11-20T10:15:06;20.67;;;10.30;;
53903;SDS011;39812;52.430;16.936;2022-11-20T10:18:02;22.35;;;9.95;;
53903;SDS011;39812;52.430;16.936;2022-11-20T10:20:49;22.88;;;9.25;;
53903;SDS011;39812;52.430;16.936;2022-11-20T10:23:51;21.35;;;9.23;;
53903;SDS011;39812;52.430;16.936;2022-11-20T10:26:55;17.42;;;8.63;;
53903;SDS011;39812;52.430;16.936;2022-11-20T10:29:41;20.45;;;10.30;;
53903;SDS011;39812;52.430;16.936;2022-11-20T10:32:16;20.33;;;9.60;;
53903;SDS011;39812;52.430;16.936;2022-11-20T10:34:58;22.27;;;10.02;;
53903;SDS011;39812;52.430;16.936;2022-11-20T10:37:31;21.08;;;10.20;;
53903;SDS011;39812;52.430;16.936;2022-11-20T10:40:19;21.17;;;10.90;;
53903;SDS011;39812;52.430;16.936;2022-11-20T10:43:11;19.30;;;8.77;;
53903;SDS011;39812;52.430;16.936;2022-11-20T10:45:46;21.20;;;9.18;;
53903;SDS011;39812;52.430;16.936;2022-11-20T10:48:15;22.85;;;9.88;;
53903;SDS011;39812;52.430;16.936;2022-11-20T10:50:55;18.05;;;9.38;;
53903;SDS011;39812;52.430;16.936;2022-11-20T10:53:47;19.15;;;9.60;;
53903;SDS011;39812;52.430;16.936;2022-11-20T10:56:47;20.92;;;9.43;;
53903;SDS011;39812;52.430;16.936;2022-11-20T10:59:28;20.45;;;9.45;;
53903;SDS011;39812;52.430;16.936;2022-11-20T11:02:18;23.60;;;9.85;;
53903;SDS011;39812;52.430;16.936;2022-11-20T11:04:45;20.27;;;9.32;;
53903;SDS011;39812;52.430;16.936;2022-11-20T11:07:15;20.25;;;9.68;;
53903;SDS011;39812;52.430;16.936;2022-11-20T11:09:58;22.52;;;10.13;;
53903;SDS011;39812;52.430;16.936;2022-11-20T11:12:25;20.15;;;8.13;;
53903;SDS011;39812;52.430;16.936;2022-11-20T11:14:52;18.38;;;8.73;;
53903;SDS011;39812;52.430;16.936;2022-11-20T11:17:23;19.13;;;9.10;;
53903;SDS011;39812;52.430;16.936;2022-11-20T11:19:57;17.25;;;7.85;;
53903;SDS011;39812;52.430;16.936;2022-11-20T11:22:22;17.20;;;8.90;;
53903;SDS011;39812;52.430;16.936;2022-11-20T11:24:51;22.02;;;9.10;;
53903;SDS011;39812;52.430;16.936;2022-11-20T11:27:18;22.75;;;10.73;;
53903;SDS011;39812;52.430;16.936;2022-11-20T11:29:43;16.30;;;7.97;;
53903;SDS011;39812;52.430;16.936;2022-11-20T11:32:19;19.15;;;8.35;;
53903;SDS011;39812;52.430;16.936;2022-11-20T11:35:02;20.58;;;8.98;;
53903;SDS011;39812;52.430;16.936;2022-11-20T11:37:36;24.92;;;9.70;;
53903;SDS011;39812;52.430;16.936;2022-11-20T11:40:03;15.40;;;7.63;;
53903;SDS011;39812;52.430;16.936;2022-11-20T11:42:30;22.70;;;10.90;;
53903;SDS011;39812;52.430;16.936;2022-11-20T11:44:56;21.23;;;9.52;;
53903;SDS011;39812;52.430;16.936;2022-11-20T11:47:37;25.60;;;10.15;;
53903;SDS011;39812;52.430;16.936;2022-11-20T11:55:36;15.32;;;7.60;;
53903;SDS011;39812;52.430;16.936;2022-11-20T12:04:16;20.15;;;8.93;;
53903;SDS011;39812;52.430;16.936;2022-11-20T12:06:53;19.40;;;9.00;;
53903;SDS011;39812;52.430;16.936;2022-11-20T12:09:28;19.60;;;8.90;;
53903;SDS011;39812;52.430;16.936;2022-11-20T12:12:08;20.73;;;9.60;;
53903;SDS011;39812;52.430;16.936;2022-11-20T12:14:37;20.52;;;8.88;;
53903;SDS011;39812;52.430;16.936;2022-11-20T12:17:09;23.40;;;10.07;;
53903;SDS011;39812;52.430;16.936;2022-11-20T12:19:37;17.40;;;8.32;;
53903;SDS011;39812;52.430;16.936;2022-11-20T12:27:55;24.67;;;10.07;;
53903;SDS011;39812;52.430;16.936;2022-11-20T12:30:32;29.27;;;12.45;;
53903;SDS011;39812;52.430;16.936;2022-11-20T12:36:06;22.70;;;9.55;;
53903;SDS011;39812;52.430;16.936;2022-11-20T12:38:42;23.70;;;9.65;;
53903;SDS011;39812;52.430;16.936;2022-11-20T12:41:22;25.05;;;10.48;;
53903;SDS011;39812;52.430;16.936;2022-11-20T12:47:33;22.13;;;10.02;;
53903;SDS011;39812;52.430;16.936;2022-11-20T12:55:36;21.98;;;9.73;;
53903;SDS011;39812;52.430;16.936;2022-11-20T12:58:20;22.10;;;10.45;;
53903;SDS011;39812;52.430;16.936;2022-11-20T13:01:00;20.15;;;9.50;;
53903;SDS011;39812;52.430;16.936;2022-11-20T13:06:57;18.88;;;8.80;;
53903;SDS011;39812;52.430;16.936;2022-11-20T13:09:23;21.83;;;8.73;;
53903;SDS011;39812;52.430;16.936;2022-11-20T13:11:53;19.30;;;9.57;;
53903;SDS011;39812;52.430;16.936;2022-11-20T13:19:39;26.30;;;9.07;;
53903;SDS011;39812;52.430;16.936;2022-11-20T13:22:05;24.02;;;10.63;;
53903;SDS011;39812;52.430;16.936;2022-11-20T13:24:33;20.98;;;8.85;;
53903;SDS011;39812;52.430;16.936;2022-11-20T13:29:33;26.95;;;11.02;;
53903;SDS011;39812;52.430;16.936;2022-11-20T13:32:04;24.17;;;10.75;;
53903;SDS011;39812;52.430;16.936;2022-11-20T13:34:32;26.83;;;10.48;;
53903;SDS011;39812;52.430;16.936;2022-11-20T13:36:58;22.38;;;9.77;;
53903;SDS011;39812;52.430;16.936;2022-11-20T13:39:34;29.15;;;11.18;;
53903;SDS011;39812;52.430;16.936;2022-11-20T13:44:39;26.90;;;12.02;;
53903;SDS011;39812;52.430;16.936;2022-11-20T13:47:22;28.02;;;11.23;;
53903;SDS011;39812;52.430;16.936;2022-11-20T13:49:50;22.35;;;10.40;;
53903;SDS011;39812;52.430;16.936;2022-11-20T13:55:44;26.85;;;12.85;;
53903;SDS011;39812;52.430;16.936;2022-11-20T14:01:19;27.63;;;11.23;;
53903;SDS011;39812;52.430;16.936;2022-11-20T14:03:44;23.15;;;10.13;;
53903;SDS011;39812;52.430;16.936;2022-11-20T14:06:12;23.75;;;11.52;;
53903;SDS011;39812;52.430;16.936;2022-11-20T14:08:49;27.92;;;10.43;;
53903;SDS011;39812;52.430;16.936;2022-11-20T14:11:19;30.13;;;12.10;;
53903;SDS011;39812;52.430;16.936;2022-11-20T14:16:26;27.90;;;12.70;;
53903;SDS011;39812;52.430;16.936;2022-11-20T14:18:54;42.53;;;13.50;;
53903;SDS011;39812;52.430;16.936;2022-11-20T14:21:21;31.15;;;12.85;;
53903;SDS011;39812;52.430;16.936;2022-11-20T14:24:02;29.75;;;13.27;;
53903;SDS011;39812;52.430;16.936;2022-11-20T14:26:29;33.45;;;14.85;;
53903;SDS011;39812;52.430;16.936;2022-11-20T14:28:55;38.67;;;17.40;;
53903;SDS011;39812;52.430;16.936;2022-11-20T14:31:23;69.82;;;23.80;;
53903;SDS011;39812;52.430;16.936;2022-11-20T14:33:50;42.88;;;17.17;;
53903;SDS011;39812;52.430;16.936;2022-11-20T14:36:20;42.05;;;18.23;;
53903;SDS011;39812;52.430;16.936;2022-11-20T14:38:48;40.17;;;15.93;;
53903;SDS011;39812;52.430;16.936;2022-11-20T14:41:18;33.63;;;14.80;;
53903;SDS011;39812;52.430;16.936;2022-11-20T14:43:56;40.70;;;16.02;;
53903;SDS011;39812;52.430;16.936;2022-11-20T14:46:23;37.22;;;14.48;;
53903;SDS011;39812;52.430;16.936;2022-11-20T14:48:50;36.00;;;13.27;;
53903;SDS011;39812;52.430;16.936;2022-11-20T14:51:30;34.10;;;14.40;;
53903;SDS011;39812;52.430;16.936;2022-11-20T14:56:36;40.47;;;15.23;;
53903;SDS011;39812;52.430;16.936;2022-11-20T14:59:01;45.03;;;17.98;;
53903;SDS011;39812;52.430;16.936;2022-11-20T15:01:28;39.50;;;16.48;;
53903;SDS011;39812;52.430;16.936;2022-11-20T15:04:05;41.60;;;15.77;;
53903;SDS011;39812;52.430;16.936;2022-11-20T15:06:34;47.30;;;17.42;;
53903;SDS011;39812;52.430;16.936;2022-11-20T15:09:00;40.90;;;15.32;;
53903;SDS011;39812;52.430;16.936;2022-11-20T15:11:37;36.05;;;14.82;;
53903;SDS011;39812;52.430;16.936;2022-11-20T15:14:04;31.55;;;14.98;;
53903;SDS011;39812;52.430;16.936;2022-11-20T15:16:31;39.55;;;16.48;;
53903;SDS011;39812;52.430;16.936;2022-11-20T15:18:57;43.10;;;16.70;;
53903;SDS011;39812;52.430;16.936;2022-11-20T15:21:23;39.08;;;16.95;;
53903;SDS011;39812;52.430;16.936;2022-11-20T15:23:49;57.58;;;18.35;;
53903;SDS011;39812;52.430;16.936;2022-11-20T15:26:17;52.28;;;19.60;;
53903;SDS011;39812;52.430;16.936;2022-11-20T15:28:47;51.30;;;19.83;;